Time;durP1;ratioP1;P1;durP2;ratioP2;P2;SDS_P1;SDS_P2;PMS_P1;PMS_P2;Temp;Humidity;BMP_temperature;BMP_pressure;BME280_temperature;BME280_humidity;BME280_pressure;Samples;Min_cycle;Max_cycle;Signal;HPM_P1;HPM_P2
2022/04/06 00:00:29;;;;;;;13.07;7.47;;;;;;;9.09;59.26;99717.88;5114156;27;20566;-78
2022/04/06 00:02:56;;;;;;;14.57;7.97;;;;;;;9.14;59.04;99714.50;5077516;28;20258;-78
2022/04/06 00:05:23;;;;;;;13.98;7.57;;;;;;;9.14;59.28;99713.63;5113429;27;20208;-80
2022/04/06 00:07:50;;;;;;;15.57;7.72;;;;;;;9.19;59.61;99722.34;5113455;27;20196;-79
2022/04/06 00:10:16;;;;;;;18.50;8.20;;;;;;;9.03;59.97;99703.13;5113027;27;20202;-79
2022/04/06 00:12:45;;;;;;;12.18;8.10;;;;;;;9.02;60.69;99724.69;5114348;27;20693;-79
2022/04/06 00:15:12;;;;;;;16.80;8.50;;;;;;;8.95;60.36;99722.84;5118185;27;20200;-79
2022/04/06 00:17:40;;;;;;;13.13;8.18;;;;;;;8.44;60.39;99648.81;5133582;27;20223;-80
2022/04/06 00:20:08;;;;;;;12.43;7.47;;;;;;;8.54;62.02;99682.53;5132091;27;20287;-79
2022/04/06 00:22:35;;;;;;;11.73;6.78;;;;;;;8.57;62.39;99698.94;5133427;27;20201;-80
2022/04/06 00:25:02;;;;;;;10.82;6.25;;;;;;;8.70;62.25;99723.28;5128497;27;20197;-80
2022/04/06 00:27:29;;;;;;;12.45;6.63;;;;;;;8.60;62.38;99709.31;5129853;27;20200;-80
2022/04/06 00:29:57;;;;;;;10.02;6.38;;;;;;;8.63;62.65;99706.81;5120482;27;20732;-79
2022/04/06 00:32:24;;;;;;;8.57;6.10;;;;;;;8.66;62.96;99722.38;5120860;27;20248;-79
2022/04/06 00:37:35;;;;;;;8.45;5.88;;;;;;;8.53;63.52;99714.34;5132266;27;20252;-80
2022/04/06 00:40:02;;;;;;;8.65;5.55;;;;;;;8.52;63.36;99715.22;5130890;27;20688;-80
2022/04/06 00:42:29;;;;;;;9.50;5.63;;;;;;;8.62;63.45;99712.81;5095724;27;20201;-78
2022/04/06 00:44:57;;;;;;;7.07;5.50;;;;;;;8.55;62.96;99690.31;5133167;27;20193;-79
2022/04/06 00:47:24;;;;;;;7.32;5.05;;;;;;;8.76;62.16;99728.56;5133093;27;20587;-79
2022/04/06 00:49:51;;;;;;;6.18;4.93;;;;;;;8.72;61.53;99717.28;5123781;27;20202;-79
2022/04/06 00:52:18;;;;;;;5.43;4.88;;;;;;;8.74;60.35;99727.66;5133017;27;20233;-78
2022/04/06 00:54:45;;;;;;;8.15;5.03;;;;;;;8.78;60.79;99725.13;5128363;27;20696;-79
2022/04/06 00:57:13;;;;;;;8.07;5.30;;;;;;;8.74;59.25;99717.34;5132319;27;20235;-79
2022/04/06 00:59:42;;;;;;;6.28;3.90;;;;;;;8.59;59.36;99702.44;5101971;28;20200;-79
2022/04/06 01:02:10;;;;;;;6.20;4.88;;;;;;;8.88;59.57;99718.44;5112524;27;20567;-78
2022/04/06 01:04:37;;;;;;;6.93;4.65;;;;;;;8.92;58.02;99722.78;5112431;28;20201;-78
2022/04/06 01:07:04;;;;;;;6.53;4.25;;;;;;;9.03;55.94;99728.97;5112487;28;20840;-78
2022/04/06 01:09:31;;;;;;;5.88;3.80;;;;;;;9.03;54.51;99710.00;5112327;28;20202;-79
2022/04/06 01:11:59;;;;;;;5.25;4.30;;;;;;;9.55;54.67;99727.16;5116694;27;20220;-78
2022/04/06 01:14:26;;;;;;;9.95;5.38;;;;;;;9.41;55.38;99699.38;5132682;27;20208;-79
2022/04/06 01:16:59;;;;;;;11.02;5.10;;;;;;;9.45;55.83;99721.00;5133009;27;20196;-79
2022/04/06 01:19:32;;;;;;;6.70;4.90;;;;;;;9.58;55.91;99732.38;5123366;27;20201;-79
2022/04/06 01:21:59;;;;;;;5.72;4.25;;;;;;;9.37;56.23;99731.22;5129980;27;20193;-78
2022/04/06 01:24:28;;;;;;;4.00;3.55;;;;;;;9.39;54.88;99692.44;5112471;28;20197;-79
2022/04/06 01:26:55;;;;;;;7.47;4.30;;;;;;;9.23;54.18;99668.09;5112047;28;20551;-79
2022/04/06 01:29:22;;;;;;;7.97;5.03;;;;;;;9.56;55.68;99731.50;5112163;28;20193;-79
2022/04/06 01:31:49;;;;;;;7.30;5.68;;;;;;;9.55;60.13;99724.56;5105938;28;20194;-78
2022/04/06 01:34:16;;;;;;;10.68;6.95;;;;;;;9.41;72.02;99732.16;5116850;27;20261;-80
2022/04/06 01:36:43;;;;;;;14.38;8.02;;;;;;;9.19;89.00;99712.00;5132405;27;20233;-79
2022/04/06 01:39:10;;;;;;;12.23;7.97;;;;;;;9.16;99.95;99733.50;5112490;27;20205;-79
2022/04/06 01:41:38;;;;;;;13.93;8.60;;;;;;;8.95;100.00;99707.34;5130789;27;20197;-79
2022/04/06 01:44:05;;;;;;;10.98;8.43;;;;;;;8.66;100.00;99729.25;5112184;28;20250;-79
2022/04/06 01:46:33;;;;;;;11.98;8.75;;;;;;;8.59;100.00;99722.25;5111743;28;20258;-79
2022/04/06 01:54:29;;;;;;;14.20;8.20;;;;;;;8.27;100.00;99708.72;5124461;28;20205;-79
2022/04/06 01:56:57;;;;;;;12.65;8.70;;;;;;;8.25;100.00;99715.56;5113748;28;20233;-79
2022/04/06 01:59:24;;;;;;;11.85;8.10;;;;;;;8.17;100.00;99728.31;5119507;27;20209;-77
2022/04/06 02:01:53;;;;;;;12.88;8.52;;;;;;;8.26;100.00;99733.69;5111364;28;20205;-80
2022/04/06 02:04:20;;;;;;;11.50;7.30;;;;;;;8.19;100.00;99731.81;5116058;28;20205;-80
2022/04/06 02:06:47;;;;;;;14.85;7.88;;;;;;;7.89;100.00;99706.28;5131872;27;20671;-79
2022/04/06 02:09:14;;;;;;;15.02;7.90;;;;;;;7.88;100.00;99703.69;5131710;27;20230;-78
2022/04/06 02:11:42;;;;;;;15.45;7.63;;;;;;;7.96;100.00;99733.09;5131405;27;20664;-80
2022/04/06 02:14:10;;;;;;;10.38;6.10;;;;;;;8.07;100.00;99726.41;5129369;27;20285;-80
2022/04/06 02:16:37;;;;;;;8.20;6.13;;;;;;;7.86;100.00;99669.22;5131632;27;20216;-79
2022/04/06 02:19:04;;;;;;;9.05;5.68;;;;;;;8.27;100.00;99724.22;5124762;27;20644;-79
2022/04/06 02:21:32;;;;;;;6.45;5.60;;;;;;;7.85;100.00;99673.50;5095503;28;20268;-79
2022/04/06 02:23:58;;;;;;;7.93;5.40;;;;;;;8.17;100.00;99754.16;5130088;27;20193;-79
2022/04/06 02:26:27;;;;;;;12.43;6.15;;;;;;;8.29;100.00;99749.25;5111505;28;20205;-79
2022/04/06 02:28:53;;;;;;;10.02;6.80;;;;;;;8.29;100.00;99756.13;5111464;28;20281;-81
2022/04/06 02:31:22;;;;;;;11.50;6.60;;;;;;;8.28;100.00;99762.09;5126355;28;20196;-79
2022/04/06 02:33:49;;;;;;;9.85;6.22;;;;;;;8.12;100.00;99755.78;5092702;28;20696;-78
2022/04/06 02:36:16;;;;;;;12.88;6.38;;;;;;;7.91;100.00;99716.66;5110895;28;20215;-79
2022/04/06 02:38:43;;;;;;;10.45;6.30;;;;;;;8.12;100.00;99760.09;5117704;28;20197;-79
2022/04/06 02:41:10;;;;;;;7.05;5.80;;;;;;;7.93;100.00;99743.34;5129349;28;20288;-79
2022/04/06 02:43:36;;;;;;;9.02;6.20;;;;;;;8.02;100.00;99760.75;5131259;27;20212;-80
2022/04/06 02:46:04;;;;;;;6.22;5.10;;;;;;;7.83;99.47;99733.69;5130595;27;20197;-79
2022/04/06 02:48:32;;;;;;;11.43;5.28;;;;;;;7.95;97.64;99758.03;5129427;27;20653;-80
2022/04/06 02:50:59;;;;;;;5.40;4.50;;;;;;;7.95;94.58;99760.59;5114979;27;20262;-80
2022/04/06 02:53:26;;;;;;;11.52;5.20;;;;;;;7.82;89.88;99748.28;5123277;28;20221;-79
2022/04/06 02:55:52;;;;;;;6.50;4.40;;;;;;;8.16;84.63;99760.19;5129685;27;20212;-79
2022/04/06 02:58:19;;;;;;;5.72;4.10;;;;;;;8.48;69.27;99759.94;5123185;27;20233;-79
2022/04/06 03:00:47;;;;;;;4.07;3.10;;;;;;;9.08;62.48;99752.34;5134495;27;20710;-80
2022/04/06 03:03:13;;;;;;;4.35;3.22;;;;;;;9.66;58.99;99767.00;5134894;27;20197;-79
2022/04/06 03:05:41;;;;;;;3.30;2.97;;;;;;;9.78;56.80;99725.72;5089923;28;20204;-79
2022/04/06 03:08:08;;;;;;;4.32;2.65;;;;;;;9.98;57.18;99765.69;5114445;28;20201;-78
2022/04/06 03:10:35;;;;;;;12.25;4.80;;;;;;;9.75;60.90;99767.09;5114103;27;20221;-78
2022/04/06 03:13:02;;;;;;;4.78;4.30;;;;;;;9.45;62.75;99759.81;5123176;27;20243;-79
2022/04/06 03:15:29;;;;;;;9.30;4.38;;;;;;;9.36;63.71;99768.28;5094816;28;20212;-79
2022/04/06 03:17:55;;;;;;;8.13;4.18;;;;;;;9.08;64.66;99750.63;5122431;27;20254;-79
2022/04/06 03:20:22;;;;;;;6.28;4.38;;;;;;;9.01;66.24;99758.25;5132338;27;20667;-80
2022/04/06 03:22:50;;;;;;;4.72;4.20;;;;;;;8.90;66.34;99771.00;5098666;27;20208;-80
2022/04/06 03:25:17;;;;;;;12.57;4.28;;;;;;;8.98;66.06;99768.56;5134448;27;20203;-79
2022/04/06 03:27:44;;;;;;;7.78;4.70;;;;;;;8.92;66.63;99774.47;5124352;27;20206;-80
2022/04/06 03:30:12;;;;;;;7.63;4.22;;;;;;;8.80;67.65;99779.47;5115162;27;20197;-78
2022/04/06 03:32:39;;;;;;;6.18;4.28;;;;;;;8.72;67.88;99775.88;5134492;27;20268;-79
2022/04/06 03:35:07;;;;;;;9.88;4.53;;;;;;;8.70;68.79;99774.97;5094483;28;20692;-81
2022/04/06 03:37:34;;;;;;;5.65;4.10;;;;;;;8.62;69.79;99766.22;5113842;27;20202;-80
2022/04/06 03:40:05;;;;;;;3.95;3.60;;;;;;;8.57;68.67;99760.09;5129883;27;20205;-81
2022/04/06 03:42:32;;;;;;;7.28;4.13;;;;;;;8.65;67.71;99776.59;5126699;27;20225;-80
2022/04/06 03:44:59;;;;;;;7.57;3.65;;;;;;;8.95;63.01;99759.03;5110176;27;20192;-79
2022/04/06 03:47:29;;;;;;;4.97;4.28;;;;;;;9.34;63.59;99774.31;5115299;27;20254;-79
2022/04/06 03:49:56;;;;;;;8.55;5.28;;;;;;;9.30;62.18;99752.69;5095049;28;20318;-79
2022/04/06 03:52:23;;;;;;;6.22;4.05;;;;;;;9.65;59.20;99775.59;5083497;28;20201;-80
2022/04/06 03:54:49;;;;;;;5.13;4.53;;;;;;;9.80;59.14;99784.44;5132524;27;20208;-80
2022/04/06 03:57:17;;;;;;;13.35;5.55;;;;;;;9.62;60.68;99745.38;5128970;27;20619;-80
2022/04/06 03:59:44;;;;;;;6.70;5.00;;;;;;;9.55;62.29;99790.13;5114858;27;20244;-79
2022/04/06 04:02:11;;;;;;;12.73;5.40;;;;;;;9.43;63.95;99795.13;5081484;27;20197;-79
2022/04/06 04:04:38;;;;;;;16.83;6.50;;;;;;;8.91;67.39;99736.56;5133932;27;20602;-80
2022/04/06 04:07:07;;;;;;;9.35;6.03;;;;;;;9.14;76.24;99801.56;5096490;27;20299;-80
2022/04/06 04:09:34;;;;;;;13.05;8.90;;;;;;;8.89;100.00;99813.22;5113181;28;20290;-80
2022/04/06 04:12:00;;;;;;;14.15;10.20;;;;;;;8.64;100.00;99821.38;5124722;27;20205;-79
2022/04/06 04:14:31;;;;;;;17.08;10.10;;;;;;;8.38;100.00;99831.22;5130070;27;20617;-81
2022/04/06 04:16:58;;;;;;;17.52;11.50;;;;;;;7.83;100.00;99831.75;5113429;28;20207;-79
2022/04/06 04:19:25;;;;;;;17.85;10.50;;;;;;;7.70;100.00;99788.47;5126449;27;20193;-78
2022/04/06 04:21:52;;;;;;;12.73;9.65;;;;;;;8.03;100.00;99837.31;5118122;27;20200;-77
2022/04/06 04:24:19;;;;;;;15.07;10.05;;;;;;;8.05;100.00;99841.72;5120569;27;20270;-78
2022/04/06 04:26:46;;;;;;;14.93;8.23;;;;;;;8.43;100.00;99842.50;5113903;27;20190;-80
2022/04/06 04:29:13;;;;;;;10.65;7.72;;;;;;;9.12;100.00;99850.69;5115690;27;20209;-80
2022/04/06 04:31:41;;;;;;;11.48;6.63;;;;;;;9.92;100.00;99849.31;5131009;27;20672;-78
2022/04/06 04:34:08;;;;;;;11.23;7.60;;;;;;;10.37;100.00;99864.66;5132547;27;20208;-80
2022/04/06 04:36:36;;;;;;;11.65;6.70;;;;;;;11.38;93.86;99864.81;5112837;28;20198;-78
2022/04/06 04:39:03;;;;;;;12.35;7.25;;;;;;;11.28;89.60;99863.00;5112696;28;20229;-77
2022/04/06 04:41:29;;;;;;;10.65;7.05;;;;;;;11.35;87.44;99864.78;5128813;27;20201;-79
2022/04/06 04:43:56;;;;;;;14.30;6.95;;;;;;;11.63;77.98;99872.81;5124000;27;20205;-79
2022/04/06 04:46:23;;;;;;;15.00;8.57;;;;;;;11.75;76.34;99878.97;5112482;27;20205;-77
2022/04/06 04:48:51;;;;;;;17.92;7.55;;;;;;;12.29;69.80;99873.22;5125120;27;20196;-77
2022/04/06 04:51:18;;;;;;;14.70;7.30;;;;;;;12.60;60.96;99894.16;5117995;27;20274;-77
2022/04/06 04:53:45;;;;;;;22.42;9.25;;;;;;;12.80;60.45;99895.97;5118247;27;20212;-76
2022/04/06 04:56:12;;;;;;;17.00;8.82;;;;;;;13.50;60.50;99888.28;5119335;27;20205;-77
2022/04/06 04:58:39;;;;;;;12.25;7.68;;;;;;;13.31;60.36;99860.50;5113301;27;20192;-75
2022/04/06 05:01:06;;;;;;;25.73;10.13;;;;;;;13.86;61.72;99893.47;5112136;28;20617;-75
2022/04/06 05:03:33;;;;;;;16.25;9.07;;;;;;;13.69;63.18;99896.97;5124544;27;20692;-74
2022/04/06 05:06:01;;;;;;;20.80;9.00;;;;;;;13.13;64.86;99882.19;5119810;27;20212;-74
2022/04/06 05:08:28;;;;;;;13.88;8.57;;;;;;;13.37;65.33;99894.38;5122548;27;20262;-74
2022/04/06 05:10:55;;;;;;;20.95;9.05;;;;;;;13.94;64.16;99890.88;5104089;27;20200;-73
2022/04/06 05:13:22;;;;;;;15.52;9.20;;;;;;;14.67;62.93;99908.91;5132369;27;20232;-74
2022/04/06 05:15:49;;;;;;;19.52;10.23;;;;;;;15.07;61.19;99913.06;5132325;27;20725;-76
2022/04/06 05:18:15;;;;;;;20.05;11.13;;;;;;;15.63;73.27;99902.25;5122690;27;20197;-74
2022/04/06 05:20:42;;;;;;;25.85;9.38;;;;;;;15.55;57.71;99911.91;5112827;27;20613;-76
2022/04/06 05:23:11;;;;;;;29.63;12.20;;;;;;;15.85;54.88;99910.75;5111297;28;20217;-76
2022/04/06 05:25:37;;;;;;;22.98;10.85;;;;;;;15.50;53.87;99921.53;5112672;27;20201;-75
2022/04/06 05:28:05;;;;;;;26.30;11.80;;;;;;;14.97;53.70;99916.63;5115730;27;20208;-76
2022/04/06 05:30:33;;;;;;;26.67;12.43;;;;;;;14.23;55.01;99920.31;5075672;28;20190;-77
2022/04/06 05:33:00;;;;;;;28.92;11.85;;;;;;;13.84;63.89;99923.03;5113407;27;20200;-76
2022/04/06 05:35:28;;;;;;;27.08;11.30;;;;;;;13.21;58.27;99927.31;5111956;28;20217;-75
2022/04/06 05:37:56;;;;;;;19.10;12.48;;;;;;;12.78;59.50;99935.84;5111740;28;20254;-75
2022/04/06 05:40:26;;;;;;;13.80;9.43;;;;;;;12.42;62.31;99911.41;5117207;27;20277;-77
2022/04/06 05:42:52;;;;;;;15.73;8.55;;;;;;;12.20;62.14;99912.16;5132201;27;20192;-76
2022/04/06 05:45:19;;;;;;;13.30;8.73;;;;;;;12.14;62.95;99929.44;5087891;28;20654;-77
2022/04/06 05:47:47;;;;;;;17.00;9.98;;;;;;;11.58;64.41;99908.25;5075852;28;20734;-76
2022/04/06 05:50:15;;;;;;;22.25;10.55;;;;;;;11.60;65.83;99924.69;5117826;27;20197;-75
2022/04/06 05:52:42;;;;;;;17.73;8.70;;;;;;;11.71;64.88;99913.56;5132057;27;20610;-77
2022/04/06 05:55:10;;;;;;;23.90;9.57;;;;;;;11.43;65.02;99842.34;5096067;28;20220;-78
2022/04/06 05:57:38;;;;;;;10.65;7.45;;;;;;;11.97;64.61;99923.28;5132691;27;20229;-77
2022/04/06 06:00:08;;;;;;;13.93;8.93;;;;;;;12.04;64.50;99919.88;5132143;27;20207;-76
2022/04/06 06:02:35;;;;;;;14.32;7.50;;;;;;;12.09;65.53;99926.84;5132047;27;20200;-77
2022/04/06 06:05:02;;;;;;;19.65;9.82;;;;;;;12.07;65.20;99915.56;5096001;28;20188;-75
2022/04/06 06:07:29;;;;;;;18.73;10.40;;;;;;;12.15;65.28;99934.66;5131810;27;20684;-78
2022/04/06 06:09:56;;;;;;;21.02;10.73;;;;;;;12.24;64.44;99939.03;5132378;27;20204;-78
2022/04/06 06:12:23;;;;;;;44.85;21.58;;;;;;;12.41;62.61;99935.66;5131820;27;20197;-78
2022/04/06 06:14:51;;;;;;;33.95;14.43;;;;;;;12.52;73.20;99940.09;5131868;27;20688;-79
2022/04/06 06:17:18;;;;;;;27.17;10.85;;;;;;;12.36;65.00;99937.41;5131962;27;20205;-78
2022/04/06 06:19:45;;;;;;;15.02;9.80;;;;;;;12.27;64.70;99952.91;5131902;27;20201;-76
2022/04/06 06:22:12;;;;;;;10.85;7.60;;;;;;;12.42;63.74;99945.22;5132402;27;20205;-78
2022/04/06 06:24:38;;;;;;;20.50;8.13;;;;;;;12.52;60.29;99946.13;5132783;27;20204;-76
2022/04/06 06:27:06;;;;;;;13.25;5.95;;;;;;;12.55;58.55;99945.28;5095986;28;20717;-76
2022/04/06 06:29:33;;;;;;;21.70;7.18;;;;;;;12.87;79.48;99941.09;5132126;27;20209;-77
2022/04/06 06:32:01;;;;;;;13.95;7.03;;;;;;;12.91;62.13;99940.25;5132408;27;20204;-78
2022/04/06 06:34:28;;;;;;;14.23;7.10;;;;;;;12.92;59.62;99918.53;5135591;27;20719;-79
2022/04/06 06:36:55;;;;;;;26.58;11.70;;;;;;;13.12;57.74;99935.13;5136428;27;20535;-81
2022/04/06 06:39:22;;;;;;;23.67;9.35;;;;;;;13.17;57.09;99949.00;5099696;27;20189;-79
2022/04/06 06:41:49;;;;;;;21.23;8.38;;;;;;;13.28;60.23;99941.22;5135724;27;20197;-80
2022/04/06 06:44:15;;;;;;;17.60;6.93;;;;;;;12.89;54.71;99856.09;5135154;27;20200;-84
2022/04/06 06:46:42;;;;;;;9.27;5.55;;;;;;;13.32;52.84;99933.41;5099222;27;20591;-80
2022/04/06 06:49:10;;;;;;;8.00;5.55;;;;;;;13.51;51.41;99936.03;5135261;27;20209;-82
2022/04/06 06:51:39;;;;;;;11.73;4.45;;;;;;;13.56;51.00;99939.50;5135893;27;20188;-79
2022/04/06 06:54:06;;;;;;;4.93;4.07;;;;;;;13.83;50.13;99955.16;5116350;27;20224;-81
2022/04/06 06:56:33;;;;;;;7.13;4.63;;;;;;;13.84;50.14;99967.34;5135565;27;20228;-82
2022/04/06 06:59:00;;;;;;;10.63;5.07;;;;;;;13.88;49.86;99958.63;5135521;27;20578;-81
2022/04/06 07:01:27;;;;;;;6.60;4.20;;;;;;;13.87;50.12;99956.91;5135733;27;20579;-83
2022/04/06 07:03:53;;;;;;;7.47;3.63;;;;;;;13.84;49.97;99960.34;5135352;27;20193;-80
2022/04/06 07:06:22;;;;;;;4.35;3.03;;;;;;;13.73;50.71;99969.91;5135035;27;20708;-80
2022/04/06 07:08:48;;;;;;;7.63;4.22;;;;;;;13.76;50.36;99966.47;5135162;27;20208;-79
2022/04/06 07:11:15;;;;;;;6.63;4.85;;;;;;;13.93;50.43;99954.28;5134759;27;20200;-82
2022/04/06 07:13:42;;;;;;;7.35;4.88;;;;;;;14.05;50.51;99956.03;5135202;27;20224;-82
2022/04/06 07:16:10;;;;;;;5.60;4.95;;;;;;;14.39;51.94;99969.03;5135464;27;20204;-83
2022/04/06 07:18:37;;;;;;;5.13;4.20;;;;;;;14.55;52.47;99956.81;5135013;27;20574;-82
2022/04/06 07:21:04;;;;;;;6.50;4.40;;;;;;;14.84;52.86;99956.69;5135138;27;20200;-83
2022/04/06 07:23:33;;;;;;;4.25;3.17;;;;;;;14.73;49.56;99964.56;5135743;27;20205;-81
2022/04/06 07:26:00;;;;;;;3.65;3.35;;;;;;;14.63;48.99;99946.34;5135224;27;20213;-81
2022/04/06 07:28:27;;;;;;;5.28;4.32;;;;;;;14.76;49.50;99969.78;5135257;27;20289;-84
2022/04/06 07:30:53;;;;;;;5.55;3.92;;;;;;;14.87;48.51;99974.97;5134951;27;20209;-82
2022/04/06 07:33:20;;;;;;;6.60;4.03;;;;;;;14.91;49.43;99958.41;5135830;27;20208;-81
2022/04/06 07:35:47;;;;;;;5.13;3.42;;;;;;;15.04;47.23;99964.44;5134905;27;20225;-81
2022/04/06 07:38:14;;;;;;;4.85;3.72;;;;;;;15.06;47.66;99973.13;5134983;27;20197;-81
2022/04/06 07:40:42;;;;;;;7.60;4.20;;;;;;;15.14;47.29;99967.00;5134911;27;20197;-80
2022/04/06 07:43:10;;;;;;;7.13;3.83;;;;;;;15.03;46.70;99937.47;5098316;27;20201;-80
2022/04/06 07:45:37;;;;;;;7.63;3.70;;;;;;;15.04;47.17;99948.78;5133550;27;20196;-77
2022/04/06 07:48:05;;;;;;;6.88;3.53;;;;;;;15.25;46.82;99974.78;5134327;27;20201;-79
2022/04/06 07:50:32;;;;;;;4.32;3.45;;;;;;;15.26;47.46;99966.06;5115577;27;20204;-82
2022/04/06 07:52:59;;;;;;;4.57;3.38;;;;;;;15.38;46.96;99961.63;5114909;27;20185;-81
2022/04/06 07:55:25;;;;;;;5.80;3.47;;;;;;;15.59;47.08;99965.03;5134406;27;20235;-83
2022/04/06 07:57:54;;;;;;;4.32;3.70;;;;;;;15.82;46.35;99960.47;5133959;27;20236;-81
2022/04/06 08:00:21;;;;;;;5.60;3.85;;;;;;;15.94;46.10;99968.22;5134183;27;20802;-80
2022/04/06 08:02:49;;;;;;;3.95;3.53;;;;;;;15.84;45.61;99966.53;5134498;27;20213;-86
2022/04/06 08:05:16;;;;;;;4.30;4.00;;;;;;;16.01;46.33;99975.13;5133995;27;20617;-80
2022/04/06 08:07:44;;;;;;;4.70;3.65;;;;;;;16.04;46.33;99985.56;5134561;27;20204;-83
2022/04/06 08:10:12;;;;;;;7.82;4.22;;;;;;;16.10;45.67;99977.66;5133919;27;20261;-80
2022/04/06 08:12:40;;;;;;;7.53;4.20;;;;;;;16.20;45.97;99987.16;5134173;27;20212;-82
2022/04/06 08:15:10;;;;;;;4.85;4.10;;;;;;;16.08;45.98;99963.75;5133970;27;20708;-81
2022/04/06 08:17:38;;;;;;;4.28;3.15;;;;;;;16.28;45.12;99977.47;5133789;27;20204;-81
2022/04/06 08:20:06;;;;;;;4.13;3.67;;;;;;;16.38;44.65;99986.97;5133438;27;20248;-83
2022/04/06 08:22:33;;;;;;;7.80;3.80;;;;;;;16.47;43.82;99993.88;5134021;27;20201;-82
2022/04/06 08:24:59;;;;;;;6.13;3.97;;;;;;;16.53;43.56;99987.69;5133481;27;20638;-83
2022/04/06 08:27:28;;;;;;;4.25;3.53;;;;;;;16.39;43.88;99982.63;5132827;27;20653;-82
2022/04/06 08:29:54;;;;;;;3.90;2.70;;;;;;;16.40;44.40;99986.09;5117843;27;20567;-82
2022/04/06 08:32:22;;;;;;;3.83;3.53;;;;;;;16.35;44.56;99984.41;5113431;28;20201;-82
2022/04/06 08:34:49;;;;;;;5.13;3.72;;;;;;;16.44;44.75;99979.97;5113316;28;20228;-81
2022/04/06 08:37:16;;;;;;;5.22;3.80;;;;;;;16.40;44.76;99983.47;5131991;27;20211;-83
2022/04/06 08:39:43;;;;;;;3.92;3.60;;;;;;;16.26;44.43;99970.53;5135805;27;20204;-80
2022/04/06 08:42:11;;;;;;;5.07;3.42;;;;;;;16.54;44.24;99981.59;5134116;27;20211;-82
2022/04/06 08:44:38;;;;;;;5.63;3.60;;;;;;;16.68;44.50;99980.59;5127808;27;20204;-81
2022/04/06 08:47:06;;;;;;;5.95;3.55;;;;;;;16.83;43.90;99990.03;5132438;27;20196;-80
2022/04/06 08:49:36;;;;;;;14.65;3.97;;;;;;;16.42;43.87;99909.31;5132167;27;20204;-81
2022/04/06 08:52:05;;;;;;;5.22;3.97;;;;;;;16.98;44.00;99989.81;5132032;27;20236;-81
2022/04/06 08:54:32;;;;;;;4.95;4.00;;;;;;;16.94;43.84;99992.50;5132279;27;20281;-78
2022/04/06 08:56:59;;;;;;;5.03;3.58;;;;;;;16.99;43.88;99986.31;5095735;27;20315;-78
2022/04/06 08:59:26;;;;;;;5.05;3.55;;;;;;;16.96;43.63;99985.50;5132933;27;20193;-80
2022/04/06 09:01:52;;;;;;;10.30;2.88;;;;;;;16.89;42.54;99979.47;5132707;27;20683;-79
2022/04/06 09:04:21;;;;;;;5.07;3.70;;;;;;;17.09;42.02;99982.69;5132460;27;20200;-78
2022/04/06 09:06:49;;;;;;;4.47;2.92;;;;;;;17.03;41.74;99953.97;5097638;27;20201;-81
2022/04/06 09:09:22;;;;;;;5.85;3.50;;;;;;;17.38;41.75;99978.81;5096184;27;20193;-80
2022/04/06 09:11:49;;;;;;;6.00;3.70;;;;;;;17.32;42.39;99964.91;5132774;27;20203;-78
2022/04/06 09:14:16;;;;;;;5.05;3.53;;;;;;;17.16;41.61;99958.13;5132736;27;20204;-80
2022/04/06 09:16:43;;;;;;;4.38;3.97;;;;;;;17.40;42.50;99953.44;5132192;27;20205;-81
2022/04/06 09:19:12;;;;;;;6.53;3.03;;;;;;;17.22;42.53;99965.06;5131896;27;20193;-80
2022/04/06 09:21:42;;;;;;;7.88;4.03;;;;;;;17.37;42.68;99966.59;5132136;27;20205;-81
2022/04/06 09:24:17;;;;;;;5.13;4.20;;;;;;;17.32;43.08;99932.59;5132082;27;20208;-79
2022/04/06 09:26:44;;;;;;;5.38;3.58;;;;;;;16.69;42.31;99845.31;5133105;27;20207;-81
2022/04/06 09:29:14;;;;;;;5.25;4.07;;;;;;;17.29;42.79;99957.09;5135502;27;20707;-83
2022/04/06 09:31:41;;;;;;;4.07;3.67;;;;;;;17.35;42.23;99959.63;5135739;27;20649;-81
2022/04/06 09:34:12;;;;;;;7.68;3.97;;;;;;;17.49;41.73;99958.53;5132294;27;20688;-82
2022/04/06 09:36:39;;;;;;;7.05;4.07;;;;;;;17.49;41.98;99937.56;5132420;27;20235;-80
2022/04/06 09:39:06;;;;;;;2.95;2.75;;;;;;;17.48;41.91;99943.72;5133011;27;20228;-80
2022/04/06 09:41:54;;;;;;;5.40;3.35;;;;;;;17.86;41.61;99951.88;5113815;27;20195;-80
2022/04/06 09:50:15;;;;;;;9.27;3.55;;;;;;;17.56;41.00;99878.91;5132799;27;20199;-79
2022/04/06 09:52:43;;;;;;;6.57;2.95;;;;;;;17.68;40.35;99918.09;5132025;27;20224;-81
2022/04/06 09:55:12;;;;;;;4.45;3.22;;;;;;;17.94;42.14;99928.16;5096452;28;20225;-81
2022/04/06 09:57:51;;;;;;;6.22;3.13;;;;;;;18.15;40.27;99933.88;5131491;28;20231;-80
2022/04/06 10:00:20;;;;;;;10.15;2.95;;;;;;;18.34;39.37;99919.50;5131574;28;20261;-80
2022/04/06 10:02:51;;;;;;;3.20;2.10;;;;;;;18.38;38.76;99932.56;5131738;28;20197;-80
2022/04/06 10:05:20;;;;;;;3.67;3.38;;;;;;;18.42;38.62;99929.84;5131616;28;20200;-81
2022/04/06 10:07:48;;;;;;;3.40;3.10;;;;;;;18.50;38.86;99927.97;5131617;27;20312;-80
2022/04/06 10:10:15;;;;;;;6.15;2.67;;;;;;;18.44;38.94;99927.22;5135646;27;20584;-80
2022/04/06 10:12:42;;;;;;;2.50;2.30;;;;;;;18.10;39.27;99925.22;5135723;27;20628;-79
2022/04/06 10:15:11;;;;;;;3.42;3.13;;;;;;;18.14;39.02;99921.66;5099284;27;20650;-80
2022/04/06 10:17:38;;;;;;;3.95;3.35;;;;;;;18.41;39.31;99924.66;5135657;27;20197;-81
2022/04/06 10:20:12;;;;;;;3.75;3.00;;;;;;;18.32;39.61;99889.81;5135849;27;20193;-80
2022/04/06 10:22:48;;;;;;;3.50;2.80;;;;;;;18.56;38.90;99908.59;5135722;27;20672;-78
2022/04/06 10:25:22;;;;;;;7.50;3.20;;;;;;;18.57;39.01;99911.22;5136051;27;20587;-80
2022/04/06 10:27:54;;;;;;;8.48;3.13;;;;;;;18.53;39.20;99903.44;5135355;27;20197;-78
2022/04/06 10:30:23;;;;;;;6.38;2.90;;;;;;;18.56;38.98;99898.09;5135686;27;20204;-78
2022/04/06 10:32:51;;;;;;;3.72;3.42;;;;;;;18.70;39.09;99898.69;5135074;27;20250;-77
2022/04/06 10:35:23;;;;;;;5.63;2.67;;;;;;;18.70;38.29;99889.03;5099808;27;20220;-79
2022/04/06 10:38:13;;;;;;;2.78;2.55;;;;;;;18.87;37.68;99899.19;5135636;27;20196;-78
2022/04/06 10:41:07;;;;;;;5.25;2.60;;;;;;;18.90;37.85;99886.00;5135481;27;20287;-79
2022/04/06 10:43:55;;;;;;;6.35;3.38;;;;;;;18.96;38.18;99888.50;5135563;27;20188;-77
2022/04/06 10:46:38;;;;;;;5.18;2.95;;;;;;;18.73;38.05;99869.72;5091601;28;20534;-80
2022/04/06 10:49:15;;;;;;;3.65;2.70;;;;;;;18.74;37.95;99876.72;5091815;28;20259;-79
2022/04/06 10:51:43;;;;;;;3.97;2.70;;;;;;;18.85;38.12;99872.09;5091736;28;20289;-79
2022/04/06 10:54:40;;;;;;;9.98;2.67;;;;;;;18.87;37.83;99883.44;5091787;28;20198;-78
2022/04/06 10:57:07;;;;;;;6.78;3.00;;;;;;;18.80;37.69;99852.94;5051764;28;20242;-81
2022/04/06 10:59:34;;;;;;;7.40;2.78;;;;;;;19.04;37.76;99876.06;5052006;28;20199;-79
2022/04/06 11:02:18;;;;;;;9.25;2.75;;;;;;;19.08;38.24;99869.84;5053002;28;20200;-78
2022/04/06 11:04:45;;;;;;;4.25;2.80;;;;;;;19.01;38.12;99852.47;5001709;28;20204;-79
2022/04/06 11:07:13;;;;;;;4.75;3.45;;;;;;;19.42;37.69;99866.41;5051178;28;20199;-79
2022/04/06 11:12:28;;;;;;;7.68;2.45;;;;;;;19.23;37.04;99855.44;5051380;28;20202;-77
2022/04/06 11:15:19;;;;;;;4.22;2.58;;;;;;;19.22;37.11;99862.50;5051084;28;20210;-77
2022/04/06 11:17:48;;;;;;;4.03;2.67;;;;;;;19.50;37.47;99859.22;5076791;28;20230;-77
2022/04/06 11:20:17;;;;;;;3.88;3.08;;;;;;;19.60;36.83;99858.09;5089897;28;20251;-77
2022/04/06 11:22:45;;;;;;;2.53;2.33;;;;;;;19.55;36.94;99854.72;5091341;28;20663;-78
2022/04/06 11:25:14;;;;;;;2.53;2.33;;;;;;;19.64;36.51;99851.84;5040945;28;20201;-78
2022/04/06 11:27:42;;;;;;;3.92;2.20;;;;;;;19.60;36.42;99850.19;5091113;28;20271;-76
2022/04/06 11:30:12;;;;;;;2.67;2.47;;;;;;;19.67;36.64;99851.75;5090874;28;20202;-79
2022/04/06 11:32:40;;;;;;;2.60;2.33;;;;;;;19.68;36.54;99822.81;5091241;28;20217;-77
2022/04/06 11:35:10;;;;;;;2.70;2.40;;;;;;;19.53;36.57;99848.63;5130115;27;20720;-77
2022/04/06 11:37:42;;;;;;;2.63;2.42;;;;;;;19.76;36.52;99831.31;5134372;27;20208;-77
2022/04/06 11:40:09;;;;;;;2.40;2.20;;;;;;;19.90;35.66;99832.75;5134064;27;20646;-77
2022/04/06 11:42:36;;;;;;;8.18;2.80;;;;;;;19.88;35.52;99824.03;5134380;27;20215;-77
2022/04/06 11:45:04;;;;;;;2.10;2.00;;;;;;;19.95;35.36;99844.88;5134167;27;20563;-77
2022/04/06 11:47:32;;;;;;;4.18;2.10;;;;;;;19.94;35.66;99829.97;5134161;27;20209;-76
2022/04/06 11:49:59;;;;;;;3.88;2.22;;;;;;;19.89;35.63;99837.16;5134072;27;20254;-76
2022/04/06 11:52:28;;;;;;;2.05;1.95;;;;;;;19.67;35.64;99805.28;5133802;27;20219;-76